Time;durP1;ratioP1;P1;durP2;ratioP2;P2;SDS_P1;SDS_P2;PMS_P1;PMS_P2;Temp;Humidity;BMP_temperature;BMP_pressure;BME280_temperature;BME280_humidity;BME280_pressure;Samples;Min_cycle;Max_cycle;Signal;HPM_P1;HPM_P2
2021/08/14 00:02:00;;;;;;;6.60;6.10;;;22.70;99.90;;;;;;5035435;28;20405;-57
2021/08/14 00:04:25;;;;;;;7.23;6.63;;;22.80;99.90;;;;;;5018001;28;20258;-56
2021/08/14 00:06:51;;;;;;;7.63;7.00;;;22.80;99.90;;;;;;5035956;28;20183;-56
2021/08/14 00:09:16;;;;;;;9.83;7.33;;;22.70;99.90;;;;;;5018006;28;20167;-55
2021/08/14 00:11:42;;;;;;;8.60;7.33;;;22.60;99.90;;;;;;5034403;28;20656;-56
2021/08/14 00:14:08;;;;;;;7.57;6.73;;;22.60;99.90;;;;;;5035537;28;20167;-53
2021/08/14 00:16:33;;;;;;;8.03;7.23;;;22.70;99.90;;;;;;5035908;28;20164;-57
2021/08/14 00:18:59;;;;;;;8.13;7.37;;;22.70;99.90;;;;;;5035538;28;20171;-57
2021/08/14 00:21:24;;;;;;;7.63;6.90;;;22.70;99.90;;;;;;5035484;28;20179;-57
2021/08/14 00:23:50;;;;;;;7.00;6.27;;;22.70;99.90;;;;;;5035797;28;20195;-56
2021/08/14 00:26:15;;;;;;;8.47;7.63;;;22.70;99.90;;;;;;5035324;28;20225;-57
2021/08/14 00:28:41;;;;;;;7.87;7.03;;;22.70;99.90;;;;;;5034598;28;20278;-57
2021/08/14 00:31:07;;;;;;;10.97;7.50;;;22.70;99.90;;;;;;5035378;28;20209;-55
2021/08/14 00:33:33;;;;;;;7.60;6.90;;;22.70;99.90;;;;;;5035606;28;20194;-57
2021/08/14 00:35:58;;;;;;;8.03;7.00;;;22.70;99.90;;;;;;5035706;28;20982;-57
2021/08/14 00:38:24;;;;;;;6.97;6.37;;;22.70;99.90;;;;;;5035154;28;20202;-55
2021/08/14 00:40:50;;;;;;;7.93;7.13;;;22.70;99.90;;;;;;5035164;28;20632;-55
2021/08/14 00:43:16;;;;;;;8.80;7.90;;;22.70;99.90;;;;;;5034589;28;20179;-57
2021/08/14 00:45:42;;;;;;;7.90;7.20;;;22.60;99.90;;;;;;5035082;28;20449;-55
2021/08/14 00:48:08;;;;;;;8.97;8.00;;;22.50;99.90;;;;;;5035263;28;20191;-53
2021/08/14 00:50:34;;;;;;;7.83;7.13;;;22.50;99.90;;;;;;5035226;28;20402;-52
2021/08/14 00:53:00;;;;;;;7.50;6.80;;;22.40;99.90;;;;;;5030742;28;20398;-53
2021/08/14 00:55:26;;;;;;;8.10;7.30;;;22.30;99.90;;;;;;5015225;28;20844;-53
2021/08/14 00:57:51;;;;;;;9.37;7.20;;;22.20;99.90;;;;;;5014881;28;20203;-53
2021/08/14 01:00:17;;;;;;;7.63;6.93;;;22.10;99.90;;;;;;5014983;28;20175;-57
2021/08/14 01:02:43;;;;;;;7.67;6.97;;;22.00;99.90;;;;;;5015735;28;20167;-55
2021/08/14 01:05:11;;;;;;;8.20;7.47;;;22.00;99.90;;;;;;5015036;28;20192;-57
2021/08/14 01:07:37;;;;;;;7.40;6.70;;;22.10;99.90;;;;;;5014895;28;20690;-56
2021/08/14 01:10:04;;;;;;;7.57;6.73;;;22.10;99.90;;;;;;5015239;28;20493;-57
2021/08/14 01:12:29;;;;;;;7.60;6.83;;;22.20;99.90;;;;;;5024248;28;20794;-57
2021/08/14 01:14:55;;;;;;;8.00;7.20;;;22.20;99.90;;;;;;5033733;28;20433;-57
2021/08/14 01:17:21;;;;;;;7.77;7.10;;;22.30;99.90;;;;;;5034532;28;20163;-57
2021/08/14 01:19:47;;;;;;;6.67;6.17;;;22.30;99.90;;;;;;5034322;28;20251;-57
2021/08/14 01:22:14;;;;;;;6.87;6.27;;;22.30;99.90;;;;;;5034443;28;20489;-57
2021/08/14 01:24:44;;;;;;;7.87;7.07;;;22.30;99.90;;;;;;5034315;28;20457;-57
2021/08/14 01:27:11;;;;;;;8.27;7.57;;;22.30;99.90;;;;;;5034539;28;20461;-57
2021/08/14 01:29:37;;;;;;;7.80;7.10;;;22.40;99.90;;;;;;5034124;28;20485;-57
2021/08/14 01:32:05;;;;;;;7.13;6.53;;;22.40;99.90;;;;;;5034145;28;20895;-57
2021/08/14 01:34:30;;;;;;;7.93;7.10;;;22.40;99.90;;;;;;5034168;28;20476;-57
2021/08/14 01:36:56;;;;;;;7.00;6.30;;;22.40;99.90;;;;;;5034104;28;20907;-55
2021/08/14 01:39:22;;;;;;;7.73;7.03;;;22.30;99.90;;;;;;5034405;28;20167;-57
2021/08/14 01:41:56;;;;;;;8.23;7.33;;;22.30;99.90;;;;;;5034077;28;20546;-57
2021/08/14 01:44:22;;;;;;;8.80;7.53;;;22.10;99.90;;;;;;5033529;28;20213;-57
2021/08/14 01:46:47;;;;;;;8.90;8.07;;;22.00;99.90;;;;;;5034026;28;20536;-57
2021/08/14 01:49:13;;;;;;;8.07;7.30;;;21.90;99.90;;;;;;5033774;28;20398;-56
2021/08/14 01:51:38;;;;;;;8.13;7.33;;;21.80;99.90;;;;;;5028535;28;20179;-57
2021/08/14 01:54:05;;;;;;;8.07;7.27;;;21.80;99.90;;;;;;5013966;28;20259;-56
2021/08/14 01:56:32;;;;;;;7.40;6.80;;;21.70;99.90;;;;;;5014040;28;20187;-56
2021/08/14 01:58:58;;;;;;;8.30;6.90;;;21.70;99.90;;;;;;5023942;28;20420;-56
2021/08/14 02:01:24;;;;;;;8.20;7.50;;;21.70;99.90;;;;;;5033687;28;20485;-57
2021/08/14 02:03:50;;;;;;;7.50;6.70;;;21.60;99.90;;;;;;5033358;28;20237;-56
2021/08/14 02:06:17;;;;;;;8.47;7.67;;;21.60;99.90;;;;;;5033296;28;20187;-55
2021/08/14 02:08:43;;;;;;;8.30;7.60;;;21.60;99.90;;;;;;5033941;28;20178;-57
2021/08/14 02:11:14;;;;;;;8.07;7.23;;;21.50;99.90;;;;;;5033631;28;20390;-57
2021/08/14 02:13:41;;;;;;;9.00;7.30;;;21.50;99.90;;;;;;5033539;28;20533;-56
2021/08/14 02:16:07;;;;;;;7.70;6.80;;;21.50;99.90;;;;;;5033480;28;20426;-57
2021/08/14 02:18:33;;;;;;;9.37;8.30;;;21.30;99.90;;;;;;5033275;28;20434;-57
2021/08/14 02:20:59;;;;;;;8.60;7.83;;;21.30;99.90;;;;;;5033421;28;20427;-57
2021/08/14 02:23:25;;;;;;;8.27;7.47;;;21.30;99.90;;;;;;5033273;28;20500;-55
2021/08/14 02:25:50;;;;;;;8.30;7.20;;;21.40;99.90;;;;;;5033182;28;20216;-57
2021/08/14 02:28:16;;;;;;;8.20;7.47;;;21.50;99.90;;;;;;5031857;28;20191;-57
2021/08/14 02:30:41;;;;;;;8.83;7.40;;;21.60;99.90;;;;;;5033348;28;20167;-56
2021/08/14 02:33:07;;;;;;;8.90;7.20;;;21.60;99.90;;;;;;5033563;28;20191;-57
2021/08/14 02:35:33;;;;;;;7.37;6.67;;;21.60;99.90;;;;;;5033234;28;20270;-57
2021/08/14 02:37:58;;;;;;;8.23;7.50;;;21.70;99.90;;;;;;5033206;28;20171;-56
2021/08/14 02:40:24;;;;;;;10.13;7.23;;;21.70;99.90;;;;;;5033512;28;20649;-54
2021/08/14 02:42:49;;;;;;;7.90;7.10;;;21.60;99.90;;;;;;5033220;28;20178;-56
2021/08/14 02:45:15;;;;;;;8.43;7.40;;;21.50;99.90;;;;;;5033251;28;20203;-57
2021/08/14 02:47:41;;;;;;;7.60;6.73;;;21.40;99.90;;;;;;5031957;28;20200;-56
2021/08/14 02:50:08;;;;;;;7.63;7.03;;;21.40;99.90;;;;;;5033213;28;20632;-57
2021/08/14 02:52:34;;;;;;;8.03;7.33;;;21.30;99.90;;;;;;5015226;28;20171;-55
2021/08/14 02:54:59;;;;;;;9.43;8.00;;;21.30;99.90;;;;;;5033386;28;20471;-56
2021/08/14 02:57:25;;;;;;;8.03;7.20;;;21.20;99.90;;;;;;5032654;28;20517;-55
2021/08/14 02:59:50;;;;;;;8.80;8.00;;;21.10;99.90;;;;;;5032648;28;20636;-57
2021/08/14 03:02:16;;;;;;;8.57;7.77;;;21.10;99.90;;;;;;5031988;28;20163;-52
2021/08/14 03:04:42;;;;;;;8.00;7.20;;;21.10;99.90;;;;;;5032636;28;20199;-55
2021/08/14 03:07:07;;;;;;;8.70;7.90;;;21.00;99.90;;;;;;5033164;28;20195;-55
2021/08/14 03:09:33;;;;;;;6.93;6.23;;;21.10;99.90;;;;;;5033220;28;20167;-57
2021/08/14 03:11:58;;;;;;;7.93;7.23;;;21.00;99.90;;;;;;5032986;28;20717;-56
2021/08/14 03:14:24;;;;;;;12.90;8.50;;;21.00;99.90;;;;;;5033388;28;20198;-57
2021/08/14 03:16:50;;;;;;;7.93;7.23;;;21.00;99.90;;;;;;5032898;28;20290;-55
2021/08/14 03:19:15;;;;;;;9.03;8.17;;;20.90;99.90;;;;;;5033070;28;20178;-57
2021/08/14 03:21:41;;;;;;;8.73;7.93;;;20.90;99.90;;;;;;5032439;28;20586;-56
2021/08/14 03:24:06;;;;;;;9.53;7.57;;;20.90;99.90;;;;;;5032798;28;20583;-57
2021/08/14 03:26:32;;;;;;;8.90;8.10;;;20.90;99.90;;;;;;5032659;28;20193;-56
2021/08/14 03:28:58;;;;;;;9.47;8.47;;;20.90;99.90;;;;;;5032749;28;20179;-56
2021/08/14 03:31:23;;;;;;;7.67;7.07;;;20.90;99.90;;;;;;5032670;28;20168;-56
2021/08/14 03:33:49;;;;;;;8.23;6.80;;;20.90;99.90;;;;;;5032726;28;20213;-57
2021/08/14 03:36:15;;;;;;;8.07;7.27;;;20.90;99.90;;;;;;5032757;28;20187;-56
2021/08/14 03:38:40;;;;;;;7.50;6.90;;;20.90;99.90;;;;;;5036393;28;20160;-57
2021/08/14 03:41:08;;;;;;;8.30;7.50;;;20.90;99.90;;;;;;5036479;28;20544;-56
2021/08/14 03:43:34;;;;;;;8.53;7.63;;;20.90;99.90;;;;;;5036471;28;20170;-57
2021/08/14 03:46:00;;;;;;;10.10;8.60;;;21.00;99.90;;;;;;5036177;28;20437;-57
2021/08/14 03:48:25;;;;;;;7.60;6.90;;;21.00;99.90;;;;;;5036134;28;20989;-57
2021/08/14 03:50:51;;;;;;;7.30;6.70;;;21.00;99.90;;;;;;5036333;28;20174;-57
2021/08/14 03:53:17;;;;;;;8.87;8.07;;;21.00;99.90;;;;;;5035907;28;20193;-56
2021/08/14 03:55:43;;;;;;;9.57;7.80;;;21.00;99.90;;;;;;5036217;28;20553;-57
2021/08/14 03:58:08;;;;;;;7.27;6.57;;;21.00;99.90;;;;;;5036000;28;20209;-56
2021/08/14 04:00:34;;;;;;;8.50;7.23;;;21.00;99.90;;;;;;5036130;28;20398;-56
2021/08/14 04:03:00;;;;;;;7.87;7.10;;;21.00;99.90;;;;;;5036308;28;20211;-56
2021/08/14 04:05:26;;;;;;;8.70;7.90;;;21.10;99.90;;;;;;5036351;28;20183;-57
2021/08/14 04:07:52;;;;;;;8.10;7.37;;;21.00;99.90;;;;;;5035834;28;20735;-55
2021/08/14 04:10:17;;;;;;;8.50;7.33;;;20.90;99.90;;;;;;5035969;28;20437;-56
2021/08/14 04:12:43;;;;;;;9.10;8.20;;;20.90;99.90;;;;;;5035902;28;20170;-57
2021/08/14 04:15:09;;;;;;;8.50;7.70;;;20.80;99.90;;;;;;5036068;28;20210;-57
2021/08/14 04:17:36;;;;;;;8.33;7.53;;;20.80;99.90;;;;;;5035738;28;20179;-56
2021/08/14 04:20:02;;;;;;;7.60;6.90;;;20.70;99.90;;;;;;5035821;28;20456;-54
2021/08/14 04:22:28;;;;;;;8.53;7.73;;;20.80;99.90;;;;;;5035710;28;20410;-56
2021/08/14 04:24:54;;;;;;;8.40;7.60;;;20.80;99.90;;;;;;5035799;28;20426;-56
2021/08/14 04:27:19;;;;;;;9.10;8.30;;;20.70;99.90;;;;;;5035679;28;20195;-54
2021/08/14 04:29:45;;;;;;;9.33;8.53;;;20.60;99.90;;;;;;5035878;28;20167;-55
2021/08/14 04:32:11;;;;;;;8.63;7.43;;;20.60;99.90;;;;;;5036201;28;20164;-56
2021/08/14 04:34:36;;;;;;;8.40;7.60;;;20.60;99.90;;;;;;5035476;28;20195;-57
2021/08/14 04:37:02;;;;;;;7.90;7.20;;;20.50;99.90;;;;;;5035477;28;20174;-56
2021/08/14 04:39:28;;;;;;;8.70;7.90;;;20.50;99.90;;;;;;5035313;28;20648;-56
2021/08/14 04:41:53;;;;;;;8.37;7.57;;;20.50;99.90;;;;;;5035545;28;20206;-56
2021/08/14 04:44:19;;;;;;;8.47;7.60;;;20.60;99.90;;;;;;5032589;28;20178;-57
2021/08/14 04:46:45;;;;;;;9.33;8.50;;;20.60;99.90;;;;;;5015131;28;20250;-57
2021/08/14 04:49:10;;;;;;;8.37;7.60;;;20.80;99.90;;;;;;5015369;28;20164;-55
2021/08/14 04:51:37;;;;;;;7.10;6.50;;;20.80;99.90;;;;;;5015098;28;20203;-56
2021/08/14 04:54:02;;;;;;;7.70;7.00;;;20.90;99.90;;;;;;5015000;28;20175;-56
2021/08/14 04:56:28;;;;;;;8.20;7.40;;;20.90;99.90;;;;;;5015372;28;20426;-57
2021/08/14 04:58:54;;;;;;;7.43;6.73;;;21.00;99.90;;;;;;5015216;28;20301;-57
2021/08/14 05:01:19;;;;;;;8.10;7.40;;;21.00;99.90;;;;;;4997525;28;20175;-57
2021/08/14 05:03:45;;;;;;;7.53;6.37;;;21.00;99.90;;;;;;5027587;28;20186;-55
2021/08/14 05:06:10;;;;;;;8.87;8.07;;;21.00;99.90;;;;;;5025319;28;20631;-57
2021/08/14 05:08:36;;;;;;;8.63;7.57;;;21.00;99.90;;;;;;5014632;28;20568;-57
2021/08/14 05:11:03;;;;;;;9.00;8.10;;;21.00;99.90;;;;;;5015122;28;20168;-56
2021/08/14 05:13:28;;;;;;;9.30;7.50;;;21.00;99.90;;;;;;5014890;28;20172;-57
2021/08/14 05:15:54;;;;;;;9.40;8.50;;;21.00;99.90;;;;;;5014806;28;20513;-57
2021/08/14 05:18:19;;;;;;;9.00;8.10;;;21.10;99.90;;;;;;5014798;28;20267;-57
2021/08/14 05:20:45;;;;;;;9.37;8.20;;;21.20;99.90;;;;;;5014679;28;20180;-56
2021/08/14 05:23:11;;;;;;;8.97;8.07;;;21.10;99.90;;;;;;5014681;28;20176;-56
2021/08/14 05:25:37;;;;;;;10.30;8.47;;;21.00;99.90;;;;;;5014937;28;20191;-57
2021/08/14 05:28:03;;;;;;;8.07;7.30;;;21.10;99.90;;;;;;5014824;28;20291;-55
2021/08/14 05:30:28;;;;;;;8.67;7.87;;;21.10;99.90;;;;;;5014514;28;20183;-55
2021/08/14 05:32:54;;;;;;;9.67;8.60;;;21.20;99.90;;;;;;5018268;28;20476;-56
2021/08/14 05:35:20;;;;;;;9.83;8.83;;;21.20;99.90;;;;;;5034144;28;20556;-57
2021/08/14 05:37:45;;;;;;;9.93;8.93;;;21.20;99.90;;;;;;5034030;28;20187;-57
2021/08/14 05:40:11;;;;;;;8.37;7.67;;;21.20;99.90;;;;;;5021621;28;20226;-57
2021/08/14 05:42:37;;;;;;;8.10;7.40;;;21.10;99.90;;;;;;5014337;28;20243;-57
2021/08/14 05:45:03;;;;;;;8.30;7.60;;;21.30;99.90;;;;;;5018368;28;20454;-55
2021/08/14 05:47:29;;;;;;;8.93;8.03;;;21.40;99.90;;;;;;5033713;28;20680;-57
2021/08/14 05:49:54;;;;;;;8.83;7.93;;;21.50;99.90;;;;;;5034546;28;20416;-57
2021/08/14 05:52:21;;;;;;;8.23;7.30;;;21.60;99.90;;;;;;5033682;28;20171;-58
2021/08/14 05:54:46;;;;;;;8.93;7.50;;;21.70;99.90;;;;;;5033833;28;20194;-57
2021/08/14 05:57:12;;;;;;;8.37;7.27;;;21.80;99.90;;;;;;5033859;28;20417;-58
2021/08/14 05:59:37;;;;;;;8.33;7.53;;;21.90;99.90;;;;;;5033607;28;20637;-58
2021/08/14 06:02:03;;;;;;;9.13;8.33;;;22.00;99.90;;;;;;5033853;28;20182;-58
2021/08/14 06:04:29;;;;;;;9.57;8.67;;;22.00;99.90;;;;;;5033738;28;20673;-58
2021/08/14 06:06:54;;;;;;;8.13;7.33;;;22.10;99.90;;;;;;5033408;28;20313;-56
2021/08/14 06:09:20;;;;;;;8.20;7.50;;;22.20;99.90;;;;;;5033939;28;20262;-57
2021/08/14 06:11:45;;;;;;;8.10;7.40;;;22.40;99.90;;;;;;5033708;28;20167;-56
2021/08/14 06:14:11;;;;;;;8.47;7.70;;;22.50;99.90;;;;;;5033669;28;20207;-57
2021/08/14 06:16:38;;;;;;;9.00;8.10;;;22.50;99.90;;;;;;5015973;28;20171;-57
2021/08/14 06:19:04;;;;;;;9.20;8.30;;;22.60;99.90;;;;;;5033568;28;20179;-57
2021/08/14 06:21:29;;;;;;;8.70;7.90;;;22.70;99.90;;;;;;5033604;28;20769;-57
2021/08/14 06:23:55;;;;;;;9.13;8.23;;;22.80;99.90;;;;;;5033467;28;20246;-58
2021/08/14 06:26:20;;;;;;;9.17;8.37;;;22.90;99.90;;;;;;5033875;28;20198;-57
2021/08/14 06:28:46;;;;;;;7.97;7.37;;;23.00;99.90;;;;;;5033354;28;20266;-56
2021/08/14 06:31:12;;;;;;;8.43;7.60;;;23.20;99.90;;;;;;5033790;28;20517;-57
2021/08/14 06:33:37;;;;;;;8.40;7.60;;;23.30;99.90;;;;;;5033297;28;20656;-57
2021/08/14 06:36:03;;;;;;;7.93;7.30;;;23.30;99.90;;;;;;5033186;28;20683;-58
2021/08/14 06:38:29;;;;;;;8.70;7.90;;;23.40;99.90;;;;;;5033007;28;20261;-58
2021/08/14 06:40:54;;;;;;;8.00;7.40;;;23.50;99.90;;;;;;5033502;28;20649;-58
2021/08/14 06:43:20;;;;;;;8.30;7.60;;;23.70;99.90;;;;;;5033081;28;20175;-58
2021/08/14 06:45:45;;;;;;;9.47;7.77;;;23.80;99.90;;;;;;5031753;28;20211;-59
2021/08/14 06:48:11;;;;;;;9.07;8.37;;;23.90;99.90;;;;;;5013068;28;20196;-57
2021/08/14 06:50:37;;;;;;;9.70;8.80;;;24.00;99.90;;;;;;5013378;28;20184;-58
2021/08/14 06:53:02;;;;;;;9.20;8.40;;;24.00;99.90;;;;;;5024461;28;20175;-58
2021/08/14 06:55:28;;;;;;;10.63;9.30;;;24.10;99.90;;;;;;5033339;28;20607;-58
2021/08/14 06:57:54;;;;;;;9.00;8.10;;;24.20;99.90;;;;;;5032908;28;20522;-58
2021/08/14 07:00:19;;;;;;;11.47;9.33;;;24.20;99.90;;;;;;5033263;28;20175;-58
2021/08/14 07:02:45;;;;;;;10.23;9.10;;;24.20;99.90;;;;;;5032964;28;20247;-55
2021/08/14 07:05:11;;;;;;;10.07;9.17;;;24.30;99.90;;;;;;5033123;28;20206;-58
2021/08/14 07:07:37;;;;;;;8.83;7.97;;;24.40;99.90;;;;;;5032837;28;20757;-58
2021/08/14 07:10:04;;;;;;;8.33;7.73;;;24.60;99.90;;;;;;5032939;28;20432;-57
2021/08/14 07:12:30;;;;;;;9.30;8.37;;;24.80;99.90;;;;;;5035267;28;20254;-58
2021/08/14 07:14:55;;;;;;;10.37;9.27;;;24.70;99.90;;;;;;5037027;28;20986;-55
2021/08/14 07:17:21;;;;;;;9.33;8.50;;;24.90;99.90;;;;;;5037026;28;20182;-56
2021/08/14 07:19:47;;;;;;;10.37;9.30;;;25.00;99.90;;;;;;5037274;28;20172;-56
2021/08/14 07:22:12;;;;;;;9.60;8.80;;;25.10;99.90;;;;;;5036763;28;20186;-57
2021/08/14 07:24:38;;;;;;;10.53;9.63;;;25.20;99.90;;;;;;5036264;28;20195;-57
2021/08/14 07:27:04;;;;;;;11.43;10.33;;;25.10;99.90;;;;;;5036787;28;20199;-56
2021/08/14 07:29:30;;;;;;;10.33;9.43;;;25.20;99.90;;;;;;5036766;28;20175;-57
2021/08/14 07:31:55;;;;;;;11.47;10.27;;;25.10;99.90;;;;;;5036997;28;20417;-56
2021/08/14 07:34:21;;;;;;;9.97;9.00;;;25.10;99.90;;;;;;5034922;28;20175;-59
2021/08/14 07:36:46;;;;;;;11.73;10.63;;;25.00;99.90;;;;;;5036446;28;20257;-57
2021/08/14 07:39:12;;;;;;;10.20;9.03;;;25.10;99.90;;;;;;5019862;28;20187;-57
2021/08/14 07:41:37;;;;;;;11.63;10.63;;;25.20;99.90;;;;;;5016630;28;20208;-58
2021/08/14 07:44:03;;;;;;;11.33;10.17;;;25.30;99.90;;;;;;5016660;28;20164;-59
2021/08/14 07:46:29;;;;;;;10.00;9.00;;;25.30;99.90;;;;;;5016243;28;20215;-58
2021/08/14 07:48:54;;;;;;;9.37;8.57;;;25.40;99.90;;;;;;5016370;28;20164;-57
2021/08/14 07:51:20;;;;;;;10.47;8.90;;;25.50;99.90;;;;;;5016889;28;20175;-58
2021/08/14 07:53:47;;;;;;;10.80;9.57;;;25.50;99.90;;;;;;5016304;28;20278;-58
2021/08/14 07:56:12;;;;;;;11.27;8.63;;;25.50;99.90;;;;;;5016215;28;20485;-58
2021/08/14 07:58:38;;;;;;;10.13;9.13;;;25.50;99.90;;;;;;5016542;28;20187;-58
2021/08/14 08:01:03;;;;;;;12.10;10.90;;;25.70;99.90;;;;;;5016204;28;20179;-58
2021/08/14 08:03:29;;;;;;;10.57;9.50;;;26.00;99.90;;;;;;5020949;28;20241;-58
2021/08/14 08:05:54;;;;;;;10.50;9.43;;;26.00;99.90;;;;;;5035687;28;20202;-58
2021/08/14 08:08:20;;;;;;;10.00;9.00;;;26.20;99.90;;;;;;5035436;28;20202;-58
2021/08/14 08:10:46;;;;;;;9.73;8.73;;;25.90;99.90;;;;;;5035840;28;20655;-57
2021/08/14 08:13:11;;;;;;;9.90;8.90;;;25.90;99.90;;;;;;5035777;28;20201;-57
2021/08/14 08:15:37;;;;;;;9.30;8.40;;;26.00;99.90;;;;;;5035737;28;20187;-57
2021/08/14 08:18:02;;;;;;;11.23;10.13;;;26.20;99.90;;;;;;5036480;28;20723;-56
2021/08/14 08:20:28;;;;;;;10.17;9.23;;;26.10;99.90;;;;;;5035948;28;20546;-58
2021/08/14 08:22:54;;;;;;;9.20;8.33;;;26.40;99.90;;;;;;5035092;28;20294;-58
2021/08/14 08:25:20;;;;;;;9.97;8.97;;;26.40;99.90;;;;;;5035958;28;20272;-58
2021/08/14 08:27:49;;;;;;;13.63;10.47;;;26.40;99.90;;;;;;5035406;28;20701;-56
2021/08/14 08:30:17;;;;;;;8.93;8.00;;;26.40;99.90;;;;;;5035483;28;20537;-58
2021/08/14 08:32:44;;;;;;;12.07;8.93;;;26.60;99.90;;;;;;5025898;28;20423;-56
2021/08/14 08:35:11;;;;;;;12.10;8.37;;;26.60;99.90;;;;;;5022545;28;20446;-58
2021/08/14 08:37:36;;;;;;;9.40;8.57;;;26.70;99.90;;;;;;5015322;28;20473;-58
2021/08/14 08:40:03;;;;;;;12.10;8.23;;;26.80;99.90;;;;;;5015240;28;20411;-58
2021/08/14 08:42:29;;;;;;;9.97;9.10;;;26.80;99.90;;;;;;5015431;28;20180;-58
2021/08/14 08:44:54;;;;;;;7.53;6.87;;;27.00;99.90;;;;;;5015137;28;20462;-56
2021/08/14 08:47:21;;;;;;;8.13;7.33;;;27.20;99.90;;;;;;5026709;28;20213;-58
2021/08/14 08:49:58;;;;;;;9.47;8.47;;;27.30;99.90;;;;;;5035527;28;20171;-58
2021/08/14 08:52:24;;;;;;;9.93;8.93;;;27.10;99.90;;;;;;5035174;28;20394;-57
2021/08/14 08:54:52;;;;;;;11.90;9.23;;;27.20;99.90;;;;;;5034599;28;20430;-58
2021/08/14 08:57:18;;;;;;;9.90;8.90;;;27.30;99.90;;;;;;5035212;28;20402;-58
2021/08/14 08:59:45;;;;;;;10.30;7.80;;;27.50;99.90;;;;;;5034828;28;20444;-58
2021/08/14 09:02:32;;;;;;;8.67;7.77;;;27.60;99.90;;;;;;5034631;28;20407;-58
2021/08/14 09:05:09;;;;;;;9.00;7.40;;;27.80;99.90;;;;;;5034621;28;20426;-58
2021/08/14 09:07:35;;;;;;;8.53;7.70;;;28.00;99.90;;;;;;5034335;28;20445;-58
2021/08/14 09:10:03;;;;;;;7.67;7.00;;;28.10;99.90;;;;;;5034435;28;20402;-56
2021/08/14 09:12:35;;;;;;;10.13;8.03;;;28.10;99.90;;;;;;5034577;28;20410;-56
2021/08/14 09:15:02;;;;;;;9.33;8.20;;;27.90;99.90;;;;;;5035007;28;20937;-58
2021/08/14 09:17:29;;;;;;;8.97;7.97;;;27.70;99.90;;;;;;5034123;28;20776;-58
2021/08/14 09:20:17;;;;;;;8.07;7.40;;;27.80;99.90;;;;;;5034976;28;20492;-57
2021/08/14 09:22:58;;;;;;;7.80;7.10;;;27.90;99.90;;;;;;5027828;28;20466;-57
2021/08/14 09:25:24;;;;;;;8.30;7.20;;;28.10;99.90;;;;;;5014476;28;20496;-58
2021/08/14 09:28:00;;;;;;;7.57;6.93;;;28.40;99.90;;;;;;5014632;28;20450;-58
2021/08/14 09:30:45;;;;;;;7.50;6.87;;;28.50;99.90;;;;;;5015132;28;20317;-57
2021/08/14 09:33:13;;;;;;;9.53;7.87;;;28.40;99.90;;;;;;5014759;28;20460;-58
2021/08/14 09:35:40;;;;;;;12.33;7.23;;;28.30;99.90;;;;;;5013773;28;20459;-58
2021/08/14 09:38:11;;;;;;;7.90;7.20;;;28.40;99.90;;;;;;5013505;28;20861;-58
2021/08/14 09:40:45;;;;;;;8.03;6.97;;;28.50;99.90;;;;;;5015444;28;20399;-58
2021/08/14 09:43:13;;;;;;;8.60;7.80;;;28.50;99.90;;;;;;5014719;28;20493;-58
2021/08/14 09:45:53;;;;;;;9.60;7.47;;;28.60;99.90;;;;;;5013242;28;20470;-58
2021/08/14 09:48:24;;;;;;;7.60;6.80;;;28.80;99.90;;;;;;5014552;28;20431;-58
2021/08/14 09:50:50;;;;;;;8.67;7.50;;;28.50;99.90;;;;;;5014323;28;20474;-58
2021/08/14 09:53:21;;;;;;;7.30;6.53;;;28.70;99.90;;;;;;5014384;28;20876;-57
2021/08/14 09:55:53;;;;;;;8.43;7.60;;;28.70;99.90;;;;;;5014390;28;20427;-58
2021/08/14 09:58:20;;;;;;;8.07;7.37;;;28.70;99.90;;;;;;5014347;28;20402;-58
2021/08/14 10:00:48;;;;;;;7.60;6.90;;;28.80;99.90;;;;;;5013711;28;20506;-57
2021/08/14 10:03:15;;;;;;;8.07;7.27;;;28.80;99.90;;;;;;5014267;28;20415;-55
2021/08/14 10:05:42;;;;;;;9.63;7.27;;;28.90;99.90;;;;;;5014268;28;20431;-58
2021/08/14 10:08:07;;;;;;;8.03;7.27;;;29.20;99.90;;;;;;5014047;28;20824;-57
2021/08/14 10:10:33;;;;;;;7.87;7.17;;;29.20;99.40;;;;;;5013974;28;20407;-57
2021/08/14 10:13:00;;;;;;;7.77;6.97;;;29.20;99.20;;;;;;5013008;28;20183;-56
2021/08/14 10:15:28;;;;;;;8.27;7.27;;;29.20;99.20;;;;;;5013546;28;20469;-57
2021/08/14 10:17:54;;;;;;;8.73;7.90;;;29.40;99.90;;;;;;5013571;28;20438;-56
2021/08/14 10:20:21;;;;;;;8.17;7.47;;;29.70;99.90;;;;;;5013985;28;20754;-56
2021/08/14 10:22:54;;;;;;;9.10;7.37;;;29.90;99.40;;;;;;5013728;28;20506;-57
2021/08/14 10:25:20;;;;;;;7.73;7.00;;;30.00;99.40;;;;;;5014078;28;20531;-55
2021/08/14 10:28:00;;;;;;;7.90;7.20;;;30.20;99.00;;;;;;5013813;28;20549;-57
2021/08/14 10:30:35;;;;;;;9.93;7.80;;;30.30;98.00;;;;;;5013457;28;20226;-57
2021/08/14 10:33:01;;;;;;;8.20;7.40;;;29.80;98.50;;;;;;5013324;28;20490;-57
2021/08/14 10:35:26;;;;;;;9.23;8.40;;;29.70;99.40;;;;;;5013605;28;20513;-57
2021/08/14 10:37:52;;;;;;;10.93;8.10;;;29.80;99.20;;;;;;5013467;28;20513;-57
2021/08/14 10:40:19;;;;;;;7.60;6.90;;;30.00;98.90;;;;;;5013618;28;20172;-57
2021/08/14 10:42:52;;;;;;;8.23;7.43;;;30.20;99.50;;;;;;5013769;28;20229;-56
2021/08/14 10:45:38;;;;;;;8.83;7.93;;;30.20;99.00;;;;;;5013222;28;20512;-57
2021/08/14 10:48:05;;;;;;;11.63;7.60;;;30.10;98.80;;;;;;5029352;28;20595;-56
2021/08/14 10:50:33;;;;;;;11.03;8.40;;;30.00;99.30;;;;;;5033078;28;20409;-57
2021/08/14 10:53:11;;;;;;;8.23;6.87;;;30.10;98.40;;;;;;5033242;28;20402;-55
2021/08/14 10:55:49;;;;;;;8.90;8.00;;;30.20;99.20;;;;;;5033223;28;20433;-55
2021/08/14 10:58:22;;;;;;;7.40;6.70;;;30.90;98.10;;;;;;5032318;28;20408;-57
2021/08/14 11:00:49;;;;;;;9.27;8.47;;;32.50;95.40;;;;;;5014971;28;20879;-57
2021/08/14 11:03:18;;;;;;;7.00;6.50;;;33.60;93.40;;;;;;5013961;28;20493;-57
2021/08/14 11:05:45;;;;;;;7.90;7.27;;;34.20;93.20;;;;;;5013923;28;20426;-55
2021/08/14 11:08:31;;;;;;;7.87;7.07;;;35.30;91.00;;;;;;5014224;28;20924;-58
2021/08/14 11:10:57;;;;;;;8.20;7.60;;;35.80;89.80;;;;;;5013568;28;20395;-58
2021/08/14 11:13:43;;;;;;;10.57;7.80;;;36.00;85.90;;;;;;5013306;28;20765;-54
2021/08/14 11:16:09;;;;;;;8.90;8.00;;;34.70;88.40;;;;;;5013505;28;20545;-55
2021/08/14 11:18:57;;;;;;;8.37;7.57;;;34.80;90.60;;;;;;5013659;28;20450;-57
2021/08/14 11:21:50;;;;;;;7.70;7.03;;;35.40;87.80;;;;;;5013182;28;20399;-57
2021/08/14 11:24:37;;;;;;;8.07;7.43;;;35.60;84.90;;;;;;5010726;28;20430;-58
2021/08/14 11:27:26;;;;;;;7.90;7.30;;;36.90;82.10;;;;;;5012972;28;20498;-58
2021/08/14 11:29:57;;;;;;;7.10;6.40;;;37.40;78.40;;;;;;5027996;28;20460;-57
2021/08/14 11:32:24;;;;;;;8.43;7.27;;;37.60;80.80;;;;;;5033101;28;20390;-58
2021/08/14 11:34:52;;;;;;;8.60;7.90;;;37.50;76.80;;;;;;5026823;28;20430;-54
2021/08/14 11:37:18;;;;;;;7.63;6.93;;;35.90;80.20;;;;;;5013517;28;20774;-56
2021/08/14 11:39:44;;;;;;;8.20;7.40;;;35.80;81.20;;;;;;5013442;28;20461;-53
2021/08/14 11:42:13;;;;;;;8.17;7.43;;;36.20;80.00;;;;;;5013376;28;20453;-58
2021/08/14 11:47:10;;;;;;;8.83;7.93;;;37.20;76.80;;;;;;5032242;22;20482;-59
2021/08/14 11:49:56;;;;;;;7.37;6.70;;;38.40;73.10;;;;;;5013034;28;20430;-59
2021/08/14 11:52:24;;;;;;;8.40;7.60;;;38.40;73.80;;;;;;5012396;28;20399;-59
2021/08/14 11:54:58;;;;;;;7.50;6.90;;;39.50;69.80;;;;;;4992495;28;20430;-59
2021/08/14 11:57:29;;;;;;;9.10;7.43;;;39.60;67.90;;;;;;4994174;28;20403;-58
2021/08/14 11:59:55;;;;;;;8.93;8.03;;;40.40;65.60;;;;;;4996580;28;20900;-56
2021/08/14 12:02:24;;;;;;;7.83;7.03;;;40.10;66.10;;;;;;4996773;28;20403;-59
2021/08/14 12:04:51;;;;;;;8.40;7.60;;;40.60;64.00;;;;;;4997005;28;20543;-59
2021/08/14 12:07:17;;;;;;;7.67;6.97;;;39.50;64.80;;;;;;4996728;28;20447;-57
2021/08/14 12:09:43;;;;;;;8.70;7.00;;;39.40;67.60;;;;;;4996081;28;20473;-58
2021/08/14 12:12:16;;;;;;;8.10;6.80;;;39.10;68.40;;;;;;4996706;28;20172;-58
2021/08/14 12:14:42;;;;;;;8.83;7.33;;;38.40;66.70;;;;;;4996616;28;20164;-58
2021/08/14 12:17:08;;;;;;;9.53;8.67;;;38.00;69.20;;;;;;4996396;28;20424;-57
2021/08/14 12:19:34;;;;;;;8.13;7.43;;;36.30;70.00;;;;;;5012156;28;20903;-56
2021/08/14 12:22:14;;;;;;;8.67;7.77;;;35.40;75.00;;;;;;5016013;28;20183;-57
2021/08/14 12:24:40;;;;;;;9.53;7.63;;;35.00;73.80;;;;;;5016021;28;20403;-57
2021/08/14 12:27:25;;;;;;;8.50;7.80;;;34.30;77.80;;;;;;5014875;28;20454;-55
2021/08/14 12:29:51;;;;;;;8.63;7.87;;;33.80;78.90;;;;;;5015823;28;20485;-55
2021/08/14 12:32:17;;;;;;;9.37;8.57;;;34.70;76.20;;;;;;5015730;28;20398;-58
2021/08/14 12:34:44;;;;;;;8.27;7.47;;;35.40;73.40;;;;;;5015676;28;20407;-58
2021/08/14 12:37:15;;;;;;;8.87;7.37;;;36.30;72.10;;;;;;5015800;28;20176;-58
2021/08/14 12:39:51;;;;;;;8.60;7.77;;;35.70;74.30;;;;;;5015748;28;20481;-58
2021/08/14 12:42:36;;;;;;;7.50;6.80;;;37.00;72.60;;;;;;5015448;28;20391;-56
2021/08/14 12:45:16;;;;;;;7.80;7.20;;;38.00;68.00;;;;;;5015402;28;20865;-58
2021/08/14 12:47:43;;;;;;;8.43;7.73;;;38.30;69.80;;;;;;5014360;28;20533;-58
2021/08/14 12:50:17;;;;;;;8.37;7.57;;;39.10;66.20;;;;;;5015433;28;20407;-58